createdAt,value
2017-09-06T00:00:48.420Z,98.50
2017-09-06T00:03:14.756Z,98.60
2017-09-06T00:05:41.489Z,98.70
2017-09-06T00:08:07.842Z,98.70
2017-09-06T00:10:34.198Z,98.70
2017-09-06T00:13:00.661Z,98.70
2017-09-06T00:15:27.878Z,98.70
2017-09-06T00:17:54.236Z,98.70
2017-09-06T00:20:20.584Z,98.70
2017-09-06T00:22:46.975Z,98.80
2017-09-06T00:25:13.300Z,98.80
2017-09-06T00:27:40.104Z,98.80
2017-09-06T00:30:06.467Z,98.80
2017-09-06T00:32:32.820Z,98.80
2017-09-06T00:34:59.228Z,98.80
2017-09-06T00:37:25.593Z,99.00
2017-09-06T00:39:51.980Z,99.00
2017-09-06T00:42:18.366Z,99.10
2017-09-06T00:44:44.771Z,99.10
2017-09-06T00:47:11.215Z,99.10
2017-09-06T00:49:37.608Z,99.20
2017-09-06T00:52:04.000Z,99.20
2017-09-06T00:54:30.656Z,99.30
2017-09-06T00:56:57.045Z,99.30
2017-09-06T00:59:23.513Z,99.40
2017-09-06T01:01:49.902Z,99.40
2017-09-06T01:04:16.270Z,99.40
2017-09-06T01:06:42.727Z,99.40
2017-09-06T01:09:09.125Z,99.30
2017-09-06T01:11:35.512Z,99.30
2017-09-06T01:14:01.934Z,99.40
2017-09-06T01:16:28.353Z,99.30
2017-09-06T01:18:54.741Z,99.30
2017-09-06T01:21:21.472Z,99.20
2017-09-06T01:23:47.899Z,99.20
2017-09-06T01:26:14.266Z,99.20
2017-09-06T01:28:40.652Z,99.20
2017-09-06T01:31:07.042Z,99.10
2017-09-06T01:33:33.419Z,99.10
2017-09-06T01:35:59.795Z,99.10
2017-09-06T01:38:26.190Z,99.10
2017-09-06T01:40:52.605Z,99.00
2017-09-06T01:43:18.965Z,99.10
2017-09-06T01:45:45.321Z,99.00
2017-09-06T01:48:12.091Z,99.10
2017-09-06T01:50:38.466Z,99.20
2017-09-06T01:53:04.811Z,99.30
2017-09-06T01:55:31.207Z,99.30
2017-09-06T01:57:57.595Z,99.30
2017-09-06T02:00:24.044Z,99.30
2017-09-06T02:02:50.447Z,99.30
2017-09-06T02:05:17.213Z,99.30
2017-09-06T02:07:43.557Z,99.40
2017-09-06T02:10:09.933Z,99.40
2017-09-06T02:12:36.345Z,99.30
2017-09-06T02:15:09.644Z,99.60
2017-09-06T02:17:36.015Z,99.70
2017-09-06T02:20:02.383Z,99.70
2017-09-06T02:22:28.765Z,99.70
2017-09-06T02:24:55.153Z,99.80
2017-09-06T02:27:21.871Z,99.80
2017-09-06T02:29:48.210Z,99.80
2017-09-06T02:32:14.543Z,99.80
2017-09-06T02:34:40.915Z,99.80
2017-09-06T02:37:07.313Z,99.80
2017-09-06T02:39:33.677Z,99.80
2017-09-06T02:42:00.041Z,99.80
2017-09-06T02:44:26.464Z,99.80
2017-09-06T02:46:52.950Z,99.80
2017-09-06T02:49:19.329Z,99.80
2017-09-06T02:51:45.718Z,99.70
2017-09-06T02:54:12.390Z,99.70
2017-09-06T02:56:38.752Z,99.70
2017-09-06T02:59:05.099Z,99.70
2017-09-06T03:01:31.466Z,99.70
2017-09-06T03:03:57.863Z,99.60
2017-09-06T03:06:24.224Z,99.40
2017-09-06T03:08:50.553Z,99.20
2017-09-06T03:11:17.011Z,98.80
2017-09-06T03:13:43.379Z,98.50
2017-09-06T03:16:09.762Z,98.30
2017-09-06T03:18:36.114Z,98.10
2017-09-06T03:21:02.529Z,98.10
2017-09-06T03:23:28.908Z,98.10
2017-09-06T03:25:55.243Z,98.10
2017-09-06T03:28:21.663Z,97.90
2017-09-06T03:30:48.024Z,97.70
2017-09-06T03:33:14.678Z,97.60
2017-09-06T03:35:41.036Z,97.40
2017-09-06T03:38:07.381Z,97.20
2017-09-06T03:40:33.762Z,97.10
2017-09-06T03:43:00.135Z,97.00
2017-09-06T03:45:26.506Z,96.80
2017-09-06T03:47:52.879Z,96.70
2017-09-06T03:50:19.271Z,96.60
2017-09-06T03:52:45.627Z,96.50
2017-09-06T03:55:12.258Z,96.50
2017-09-06T03:57:38.616Z,96.40
2017-09-06T04:00:04.984Z,96.40
2017-09-06T04:02:31.364Z,96.30
2017-09-06T04:04:57.731Z,96.40
2017-09-06T04:07:24.094Z,96.30
2017-09-06T04:09:50.539Z,96.20
2017-09-06T04:12:16.944Z,96.30
2017-09-06T04:14:43.314Z,96.40
2017-09-06T04:17:09.665Z,96.80
2017-09-06T04:19:36.012Z,96.90
2017-09-06T04:22:02.399Z,96.80
2017-09-06T04:24:28.771Z,96.80
2017-09-06T04:26:55.161Z,96.60
2017-09-06T04:29:22.682Z,96.30
2017-09-06T04:31:49.006Z,96.10
2017-09-06T04:34:15.384Z,96.00
2017-09-06T04:36:41.748Z,95.80
2017-09-06T04:39:08.121Z,95.60
2017-09-06T04:41:34.510Z,95.70
2017-09-06T04:44:00.879Z,96.00
2017-09-06T04:46:27.262Z,96.20
2017-09-06T04:48:53.662Z,96.40
2017-09-06T04:51:20.012Z,96.50
2017-09-06T04:53:46.398Z,96.50
2017-09-06T04:56:13.144Z,96.60
2017-09-06T04:58:39.523Z,96.70
2017-09-06T05:01:05.844Z,96.80
2017-09-06T05:03:32.216Z,96.40
2017-09-06T05:05:58.575Z,96.30
2017-09-06T05:08:24.942Z,96.00
2017-09-06T05:10:51.283Z,95.80
2017-09-06T05:13:17.957Z,95.40
2017-09-06T05:15:44.327Z,95.30
2017-09-06T05:18:10.685Z,95.00
2017-09-06T05:20:37.056Z,94.70
2017-09-06T05:23:03.445Z,94.40
2017-09-06T05:25:29.809Z,94.30
2017-09-06T05:27:56.277Z,94.20
2017-09-06T05:30:22.738Z,93.90
2017-09-06T05:32:49.085Z,93.60
2017-09-06T05:35:15.839Z,93.40
2017-09-06T05:37:42.173Z,93.20
2017-09-06T05:40:08.534Z,92.80
2017-09-06T05:42:34.912Z,92.00
2017-09-06T05:45:01.277Z,91.80
2017-09-06T05:47:27.739Z,91.60
2017-09-06T05:49:54.084Z,91.50
2017-09-06T05:52:20.430Z,91.50
2017-09-06T05:54:46.804Z,91.30
2017-09-06T05:57:13.616Z,91.40
2017-09-06T05:59:39.956Z,91.30
2017-09-06T06:02:06.324Z,91.10
2017-09-06T06:04:32.778Z,91.20
2017-09-06T06:06:59.167Z,91.10
2017-09-06T06:09:25.531Z,91.30
2017-09-06T06:11:51.918Z,91.20
2017-09-06T06:14:18.297Z,91.40
2017-09-06T06:16:44.649Z,91.70
2017-09-06T06:19:11.411Z,91.60
2017-09-06T06:21:37.772Z,91.60
2017-09-06T06:24:04.120Z,91.70
2017-09-06T06:26:30.469Z,91.70
2017-09-06T06:28:56.844Z,91.70
2017-09-06T06:31:23.188Z,91.90
2017-09-06T06:33:49.523Z,92.20
2017-09-06T06:36:15.864Z,92.30
2017-09-06T06:38:42.238Z,92.40
2017-09-06T06:41:08.945Z,92.50
2017-09-06T06:43:35.292Z,92.50
2017-09-06T06:46:01.650Z,92.50
2017-09-06T06:48:28.105Z,92.40
2017-09-06T06:50:54.513Z,92.20
2017-09-06T06:53:20.881Z,92.20
2017-09-06T06:55:47.254Z,92.40
2017-09-06T06:58:13.637Z,92.20
2017-09-06T07:00:40.176Z,92.10
2017-09-06T07:03:06.564Z,92.30
2017-09-06T07:05:32.948Z,92.20
2017-09-06T07:07:59.629Z,92.50
2017-09-06T07:10:25.987Z,92.80
2017-09-06T07:12:52.511Z,93.00
2017-09-06T07:15:18.859Z,93.30
2017-09-06T07:17:45.182Z,93.50
2017-09-06T07:20:11.571Z,93.60
2017-09-06T07:22:37.952Z,93.90
2017-09-06T07:25:04.719Z,94.10
2017-09-06T07:27:31.110Z,94.10
2017-09-06T07:29:57.457Z,94.00
2017-09-06T07:32:23.885Z,93.80
2017-09-06T07:34:50.245Z,93.70
2017-09-06T07:37:16.722Z,93.70
2017-09-06T07:39:43.094Z,93.60
2017-09-06T07:42:09.492Z,93.50
2017-09-06T07:44:35.926Z,93.50
2017-09-06T07:47:02.393Z,93.50
2017-09-06T07:49:28.789Z,93.40
2017-09-06T07:51:55.461Z,93.30
2017-09-06T07:54:21.817Z,93.20
2017-09-06T07:56:48.168Z,93.10
2017-09-06T07:59:14.534Z,92.90
2017-09-06T08:01:40.889Z,92.90
2017-09-06T08:04:07.267Z,93.00
2017-09-06T08:06:33.676Z,93.10
2017-09-06T08:09:00.391Z,93.00
2017-09-06T08:11:26.745Z,93.00
2017-09-06T08:13:53.099Z,92.80
2017-09-06T08:16:19.472Z,92.50
2017-09-06T08:18:45.883Z,92.30
2017-09-06T08:21:12.266Z,91.90
2017-09-06T08:23:38.600Z,91.80
2017-09-06T08:26:05.021Z,91.20
2017-09-06T08:28:31.406Z,91.30
2017-09-06T08:30:58.052Z,91.10
2017-09-06T08:33:24.420Z,90.70
2017-09-06T08:35:50.772Z,90.70
2017-09-06T08:38:17.208Z,90.70
2017-09-06T08:40:43.569Z,90.40
2017-09-06T08:43:09.980Z,90.20
2017-09-06T08:45:36.415Z,90.20
2017-09-06T08:48:02.821Z,90.30
2017-09-06T08:50:29.304Z,90.60
2017-09-06T08:52:55.942Z,90.80
2017-09-06T08:55:22.304Z,90.50
2017-09-06T08:57:48.682Z,90.40
2017-09-06T09:00:15.059Z,90.00
2017-09-06T09:02:41.401Z,89.50
2017-09-06T09:05:07.777Z,90.10
2017-09-06T09:07:34.144Z,90.10
2017-09-06T09:10:00.871Z,90.20
2017-09-06T09:12:27.238Z,90.30
2017-09-06T09:14:53.659Z,89.30
2017-09-06T09:17:20.034Z,88.50
2017-09-06T09:19:46.378Z,88.30
2017-09-06T09:22:12.804Z,88.40
2017-09-06T09:24:39.174Z,87.70
2017-09-06T09:27:05.579Z,85.50
2017-09-06T09:29:31.960Z,83.00
2017-09-06T09:31:58.314Z,81.30
2017-09-06T09:34:24.756Z,82.10
2017-09-06T09:36:51.509Z,80.20
2017-09-06T09:39:17.880Z,80.30
2017-09-06T09:41:44.248Z,79.40
2017-09-06T09:44:10.620Z,80.70
2017-09-06T09:46:36.999Z,83.20
2017-09-06T09:49:03.479Z,85.70
2017-09-06T09:51:29.916Z,88.20
2017-09-06T09:53:56.337Z,90.90
2017-09-06T09:56:22.689Z,92.40
2017-09-06T09:58:49.063Z,93.60
2017-09-06T10:01:15.390Z,94.60
2017-09-06T10:03:42.074Z,95.20
2017-09-06T10:06:08.433Z,96.00
2017-09-06T10:08:34.794Z,96.60
2017-09-06T10:11:01.176Z,96.90
2017-09-06T10:13:27.617Z,97.20
2017-09-06T10:15:54.053Z,97.20
2017-09-06T10:18:20.456Z,97.40
2017-09-06T10:20:46.864Z,97.20
2017-09-06T10:23:13.227Z,97.20
2017-09-06T10:25:39.932Z,96.90
2017-09-06T10:28:06.311Z,96.60
2017-09-06T10:30:32.639Z,96.80
2017-09-06T10:32:59.002Z,96.80
2017-09-06T10:35:25.381Z,96.30
2017-09-06T10:37:51.776Z,96.10
2017-09-06T10:40:18.151Z,96.30
2017-09-06T10:42:44.530Z,96.40
2017-09-06T10:45:11.132Z,96.50
2017-09-06T10:47:37.555Z,96.20
2017-09-06T10:50:03.931Z,96.10
2017-09-06T10:52:30.639Z,96.10
2017-09-06T10:54:56.997Z,96.00
2017-09-06T10:57:23.335Z,95.80
2017-09-06T10:59:49.746Z,95.60
2017-09-06T11:02:16.117Z,95.20
2017-09-06T11:04:42.501Z,95.30
2017-09-06T11:07:08.876Z,94.70
2017-09-06T11:09:35.289Z,94.50
2017-09-06T11:12:01.647Z,94.60
2017-09-06T11:17:01.307Z,94.40
2017-09-06T11:19:27.673Z,93.40
2017-09-06T11:21:54.079Z,93.10
2017-09-06T11:24:20.442Z,93.80
2017-09-06T11:26:46.840Z,94.20
2017-09-06T11:29:13.248Z,93.90
2017-09-06T11:31:39.631Z,94.00
2017-09-06T11:34:06.040Z,93.40
2017-09-06T11:36:32.784Z,93.30
2017-09-06T11:38:59.138Z,93.50
2017-09-06T11:41:25.561Z,92.70
2017-09-06T11:43:51.965Z,92.00
2017-09-06T11:46:18.373Z,91.20
2017-09-06T11:48:46.167Z,91.20
2017-09-06T11:51:12.560Z,91.40
2017-09-06T11:53:38.898Z,91.90
2017-09-06T11:56:05.412Z,92.40
2017-09-06T11:58:32.175Z,92.90
2017-09-06T12:00:58.557Z,93.40
2017-09-06T12:03:24.918Z,93.20
2017-09-06T12:05:51.286Z,92.40
2017-09-06T12:08:17.641Z,92.70
2017-09-06T12:10:44.036Z,92.90
2017-09-06T12:13:10.385Z,93.10
2017-09-06T12:15:36.733Z,93.10
2017-09-06T12:18:03.142Z,93.60
2017-09-06T12:20:29.532Z,94.20
2017-09-06T12:22:55.929Z,94.90
2017-09-06T12:25:22.614Z,95.20
2017-09-06T12:27:48.986Z,95.00
2017-09-06T12:30:15.352Z,95.10
2017-09-06T12:32:41.730Z,94.70
2017-09-06T12:35:08.089Z,93.90
2017-09-06T12:37:34.529Z,92.90
2017-09-06T12:40:00.915Z,92.70
2017-09-06T12:42:27.473Z,91.00
2017-09-06T12:44:53.832Z,90.00
2017-09-06T12:47:20.509Z,90.50
2017-09-06T12:49:46.900Z,91.20
2017-09-06T12:52:13.277Z,91.30
2017-09-06T12:54:39.641Z,90.60
2017-09-06T12:57:05.999Z,89.80
2017-09-06T12:59:32.408Z,90.30
2017-09-06T13:01:58.794Z,90.60
2017-09-06T13:04:25.181Z,90.60
2017-09-06T13:06:51.544Z,90.10
2017-09-06T13:09:18.367Z,90.50
2017-09-06T13:11:44.737Z,90.50
2017-09-06T13:14:11.127Z,91.20
2017-09-06T13:16:37.536Z,91.60
2017-09-06T13:19:03.913Z,90.80
2017-09-06T13:21:30.296Z,88.70
2017-09-06T13:23:56.657Z,89.20
2017-09-06T13:26:23.600Z,90.40
2017-09-06T13:28:49.939Z,90.90
2017-09-06T13:31:16.358Z,91.40
2017-09-06T13:33:42.764Z,91.30
2017-09-06T13:36:09.147Z,91.80
2017-09-06T13:38:35.809Z,92.80
2017-09-06T13:41:02.183Z,93.40
2017-09-06T13:43:28.563Z,94.20
2017-09-06T13:45:54.979Z,94.80
2017-09-06T13:48:21.402Z,95.40
2017-09-06T13:50:47.812Z,95.90
2017-09-06T13:53:14.149Z,96.20
2017-09-06T13:55:40.557Z,95.80
2017-09-06T13:58:06.901Z,95.80
2017-09-06T14:00:33.624Z,95.90
2017-09-06T14:03:00.011Z,95.70
2017-09-06T14:05:26.373Z,95.60
2017-09-06T14:07:52.767Z,95.70
2017-09-06T14:10:19.134Z,95.80
2017-09-06T14:12:45.505Z,95.50
2017-09-06T14:15:11.883Z,95.40
2017-09-06T14:17:38.301Z,95.60
2017-09-06T14:20:04.656Z,95.60
2017-09-06T14:22:31.415Z,95.50
2017-09-06T14:24:57.788Z,95.60
2017-09-06T14:27:24.130Z,95.70
2017-09-06T14:29:50.509Z,95.80
2017-09-06T14:32:16.902Z,95.80
2017-09-06T14:34:43.253Z,95.70
2017-09-06T14:37:09.557Z,95.60
2017-09-06T14:39:35.959Z,95.60
2017-09-06T14:42:02.341Z,95.10
2017-09-06T14:44:29.206Z,94.70
2017-09-06T14:46:55.680Z,94.90
2017-09-06T14:49:22.025Z,94.90
2017-09-06T14:51:48.404Z,94.90
2017-09-06T14:54:14.783Z,95.10
2017-09-06T14:56:41.271Z,95.90
2017-09-06T14:59:07.668Z,95.40
2017-09-06T15:01:34.057Z,94.30
2017-09-06T15:04:00.399Z,93.50
2017-09-06T15:06:26.766Z,91.80
2017-09-06T15:08:53.132Z,88.90
2017-09-06T15:11:19.776Z,85.20
2017-09-06T15:13:46.156Z,84.60
2017-09-06T15:16:12.503Z,82.50
2017-09-06T15:18:38.945Z,80.10
2017-09-06T15:21:05.326Z,79.50
2017-09-06T15:23:31.734Z,79.10
2017-09-06T15:25:58.096Z,80.40
2017-09-06T15:28:24.505Z,82.40
2017-09-06T15:30:50.867Z,83.90
2017-09-06T15:33:17.522Z,85.00
2017-09-06T15:35:43.918Z,84.30
2017-09-06T15:38:10.310Z,84.80
2017-09-06T15:40:36.684Z,85.00
2017-09-06T15:43:03.129Z,85.40
2017-09-06T15:45:29.510Z,87.60
2017-09-06T15:47:55.878Z,88.40
2017-09-06T15:50:22.284Z,85.80
2017-09-06T15:52:48.672Z,84.10
2017-09-06T15:55:15.336Z,84.80
2017-09-06T15:57:41.736Z,87.70
2017-09-06T16:00:08.124Z,88.90
2017-09-06T16:02:34.494Z,87.90
2017-09-06T16:05:00.872Z,85.50
2017-09-06T16:07:27.282Z,85.00
2017-09-06T16:09:53.642Z,86.10
2017-09-06T16:12:20.042Z,85.00
2017-09-06T16:14:46.455Z,84.20
2017-09-06T16:17:13.195Z,83.10
2017-09-06T16:19:39.610Z,82.50
2017-09-06T16:22:06.029Z,82.20
2017-09-06T16:24:32.390Z,82.30
2017-09-06T16:26:58.788Z,80.70
2017-09-06T16:29:25.178Z,79.40
2017-09-06T16:31:51.574Z,79.00
2017-09-06T16:34:18.349Z,79.60
2017-09-06T16:36:44.717Z,78.70
2017-09-06T16:39:11.093Z,78.50
2017-09-06T16:41:37.507Z,79.40
2017-09-06T16:44:03.894Z,79.90
2017-09-06T16:46:30.209Z,80.70
2017-09-06T16:48:56.570Z,81.50
2017-09-06T16:51:22.999Z,82.40
2017-09-06T16:53:49.403Z,83.30
2017-09-06T16:56:16.044Z,84.40
2017-09-06T16:58:42.399Z,85.30
2017-09-06T17:01:08.809Z,86.40
2017-09-06T17:03:35.179Z,87.80
2017-09-06T17:06:01.584Z,89.40
2017-09-06T17:08:29.342Z,90.90
2017-09-06T17:10:55.717Z,90.80
2017-09-06T17:13:22.119Z,91.20
2017-09-06T17:15:48.496Z,91.50
2017-09-06T17:18:15.281Z,92.00
2017-09-06T17:20:41.701Z,92.40
2017-09-06T17:23:08.082Z,92.70
2017-09-06T17:25:34.452Z,92.70
2017-09-06T17:28:00.811Z,92.20
2017-09-06T17:30:27.208Z,92.40
2017-09-06T17:32:53.625Z,92.80
2017-09-06T17:35:20.431Z,93.10
2017-09-06T17:37:46.785Z,93.50
2017-09-06T17:40:13.211Z,93.80
2017-09-06T17:42:46.715Z,94.20
2017-09-06T17:45:13.110Z,94.60
2017-09-06T17:47:39.576Z,95.00
2017-09-06T17:50:06.026Z,95.00
2017-09-06T17:52:32.505Z,95.00
2017-09-06T17:54:58.948Z,95.00
2017-09-06T17:57:25.371Z,95.00
2017-09-06T17:59:51.764Z,95.20
2017-09-06T18:02:18.508Z,95.50
2017-09-06T18:04:44.887Z,95.80
2017-09-06T18:07:11.256Z,96.20
2017-09-06T18:09:37.657Z,96.50
2017-09-06T18:12:04.079Z,96.50
2017-09-06T18:14:30.543Z,96.60
2017-09-06T18:16:56.929Z,96.70
2017-09-06T18:19:23.617Z,96.80
2017-09-06T18:21:50.028Z,96.70
2017-09-06T18:24:16.444Z,96.90
2017-09-06T18:26:42.990Z,96.70
2017-09-06T18:29:09.540Z,96.80
2017-09-06T18:31:36.253Z,96.70
2017-09-06T18:34:02.721Z,96.90
2017-09-06T18:36:29.172Z,97.00
2017-09-06T18:38:55.694Z,97.20
2017-09-06T18:41:22.140Z,97.30
2017-09-06T18:43:48.617Z,97.40
2017-09-06T18:46:15.157Z,97.50
2017-09-06T18:48:41.908Z,97.60
2017-09-06T18:51:08.407Z,97.60
2017-09-06T18:53:34.870Z,97.60
2017-09-06T18:56:01.320Z,97.50
2017-09-06T18:58:27.768Z,97.60
2017-09-06T19:00:54.236Z,97.60
2017-09-06T19:03:20.693Z,97.70
2017-09-06T19:05:47.234Z,97.80
2017-09-06T19:08:13.687Z,98.00
2017-09-06T19:10:40.142Z,98.00
2017-09-06T19:13:06.619Z,97.90
2017-09-06T19:15:33.420Z,97.90
2017-09-06T19:17:59.909Z,97.90
2017-09-06T19:20:26.429Z,97.80
2017-09-06T19:22:52.945Z,97.90
2017-09-06T19:25:19.467Z,97.70
2017-09-06T19:27:45.961Z,97.90
2017-09-06T19:30:12.508Z,97.80
2017-09-06T19:32:39.620Z,97.20
2017-09-06T19:35:06.066Z,96.80
2017-09-06T19:37:32.506Z,96.50
2017-09-06T19:39:58.976Z,96.50
2017-09-06T19:42:25.463Z,95.90
2017-09-06T19:44:51.959Z,95.60
2017-09-06T19:47:18.457Z,95.80
2017-09-06T19:49:44.984Z,95.90
2017-09-06T19:52:11.460Z,95.20
2017-09-06T19:54:38.684Z,95.20
2017-09-06T19:57:05.151Z,94.70
2017-09-06T19:59:32.054Z,94.40
2017-09-06T20:01:58.520Z,94.60
2017-09-06T20:04:24.984Z,94.70
2017-09-06T20:06:51.449Z,94.90
2017-09-06T20:09:17.918Z,95.20
2017-09-06T20:11:44.411Z,95.70
2017-09-06T20:14:10.862Z,95.90
2017-09-06T20:16:37.332Z,96.20
2017-09-06T20:19:03.802Z,96.50
2017-09-06T20:21:30.289Z,96.70
2017-09-06T20:23:56.722Z,97.10
2017-09-06T20:26:23.504Z,97.20
2017-09-06T20:28:49.921Z,97.50
2017-09-06T20:31:16.366Z,97.50
2017-09-06T20:33:42.822Z,97.20
2017-09-06T20:36:09.269Z,97.00
2017-09-06T20:38:35.726Z,96.50
2017-09-06T20:41:02.172Z,96.00
2017-09-06T20:43:28.617Z,95.60
2017-09-06T20:45:55.039Z,95.20
2017-09-06T20:48:21.555Z,95.30
2017-09-06T20:50:47.957Z,95.20
2017-09-06T20:53:14.659Z,95.20
2017-09-06T20:55:41.111Z,94.70
2017-09-06T20:58:07.524Z,94.50
2017-09-06T21:00:33.956Z,94.70
2017-09-06T21:03:00.380Z,94.60
2017-09-06T21:05:26.802Z,94.60
2017-09-06T21:07:53.120Z,94.60
2017-09-06T21:10:19.517Z,94.70
2017-09-06T21:12:45.878Z,94.70
2017-09-06T21:15:12.296Z,94.30
2017-09-06T21:17:38.662Z,94.40
2017-09-06T21:20:05.292Z,94.60
2017-09-06T21:22:31.684Z,94.70
2017-09-06T21:24:58.041Z,95.00
2017-09-06T21:27:24.423Z,95.00
2017-09-06T21:29:50.786Z,94.70
2017-09-06T21:32:17.146Z,94.80
2017-09-06T21:34:43.528Z,95.10
2017-09-06T21:37:09.906Z,94.80
2017-09-06T21:42:09.630Z,94.70
2017-09-06T21:44:36.023Z,94.90
2017-09-06T21:47:02.510Z,95.40
2017-09-06T21:49:28.880Z,95.80
2017-09-06T21:51:55.642Z,95.60
2017-09-06T21:54:22.028Z,95.50
2017-09-06T21:56:48.385Z,95.60
2017-09-06T21:59:14.759Z,95.50
2017-09-06T22:01:41.164Z,95.20
2017-09-06T22:04:07.521Z,95.30
2017-09-06T22:06:33.861Z,95.60
2017-09-06T22:09:00.296Z,95.80
2017-09-06T22:11:26.631Z,96.00
2017-09-06T22:14:00.277Z,96.10
2017-09-06T22:16:26.662Z,96.20
2017-09-06T22:18:53.029Z,96.40
2017-09-06T22:21:19.380Z,96.10
2017-09-06T22:23:45.727Z,96.10
2017-09-06T22:26:12.141Z,96.30
2017-09-06T22:28:38.506Z,96.50
2017-09-06T22:31:04.909Z,96.30
2017-09-06T22:33:31.258Z,96.30
2017-09-06T22:35:57.935Z,96.30
2017-09-06T22:38:24.291Z,96.30
2017-09-06T22:40:50.657Z,96.20
2017-09-06T22:43:17.015Z,96.30
2017-09-06T22:45:43.381Z,96.30
2017-09-06T22:48:09.852Z,96.40
2017-09-06T22:50:36.220Z,96.40
2017-09-06T22:53:02.580Z,96.10
2017-09-06T22:55:28.947Z,95.90
2017-09-06T22:57:55.305Z,95.80
2017-09-06T23:00:27.907Z,95.70
2017-09-06T23:02:54.633Z,95.60
2017-09-06T23:05:20.996Z,95.70
2017-09-06T23:07:47.331Z,95.80
2017-09-06T23:10:13.724Z,95.90
2017-09-06T23:12:40.090Z,95.90
2017-09-06T23:15:06.467Z,95.90
2017-09-06T23:17:32.809Z,95.80
2017-09-06T23:19:59.179Z,95.60
2017-09-06T23:22:25.540Z,95.70
2017-09-06T23:24:51.916Z,95.90
2017-09-06T23:27:18.292Z,96.00
2017-09-06T23:29:44.687Z,96.10
2017-09-06T23:32:11.062Z,96.30
2017-09-06T23:34:37.481Z,96.30
2017-09-06T23:37:03.857Z,96.30
2017-09-06T23:39:30.244Z,96.20
2017-09-06T23:41:56.614Z,96.20
2017-09-06T23:44:22.969Z,96.10
2017-09-06T23:46:49.376Z,96.20
2017-09-06T23:49:15.826Z,96.00
2017-09-06T23:51:42.199Z,96.10
2017-09-06T23:54:08.595Z,96.10
2017-09-06T23:56:34.996Z,95.90
2017-09-06T23:59:01.365Z,96.00
